createdAt,value
2017-01-06T00:00:01.958Z,1034.35
2017-01-06T00:01:11.051Z,1034.36
2017-01-06T00:02:20.146Z,1034.41
2017-01-06T00:03:29.267Z,1034.32
2017-01-06T00:04:38.354Z,1034.35
2017-01-06T00:05:47.057Z,1034.34
2017-01-06T00:06:56.148Z,1034.34
2017-01-06T00:08:05.213Z,1034.33
2017-01-06T00:09:14.283Z,1034.32
2017-01-06T00:10:23.762Z,1034.3
2017-01-06T00:11:32.888Z,1034.32
2017-01-06T00:12:42.353Z,1034.29
2017-01-06T00:13:51.411Z,1034.33
2017-01-06T00:15:00.543Z,1034.39
2017-01-06T00:16:09.625Z,1034.4
2017-01-06T00:17:18.705Z,1034.35
2017-01-06T00:18:27.862Z,1034.4
2017-01-06T00:19:36.535Z,1034.4
2017-01-06T00:20:45.647Z,1034.37
2017-01-06T00:21:54.771Z,1034.38
2017-01-06T00:23:04.305Z,1034.39
2017-01-06T00:24:13.077Z,1034.44
2017-01-06T00:25:21.796Z,1034.42
2017-01-06T00:26:30.904Z,1034.41
2017-01-06T00:27:40.774Z,1034.41
2017-01-06T00:28:49.869Z,1034.42
2017-01-06T00:29:59.002Z,1034.44
2017-01-06T00:31:07.691Z,1034.43
2017-01-06T00:32:16.389Z,1034.43
2017-01-06T00:33:26.244Z,1034.46
2017-01-06T00:34:34.948Z,1034.47
2017-01-06T00:35:44.036Z,1034.47
2017-01-06T00:36:52.726Z,1034.47
2017-01-06T00:38:01.437Z,1034.44
2017-01-06T00:39:10.215Z,1034.46
2017-01-06T00:40:19.298Z,1034.47
2017-01-06T00:41:29.182Z,1034.5
2017-01-06T00:42:37.921Z,1034.47
2017-01-06T00:43:46.997Z,1034.46
2017-01-06T00:44:56.075Z,1034.47
2017-01-06T00:46:05.170Z,1034.47
2017-01-06T00:47:15.036Z,1034.48
2017-01-06T00:48:24.154Z,1034.47
2017-01-06T00:49:33.639Z,1034.45
2017-01-06T00:50:42.740Z,1034.5
2017-01-06T00:51:51.449Z,1034.54
2017-01-06T00:53:00.944Z,1034.55
2017-01-06T00:54:09.634Z,1034.56
2017-01-06T00:55:18.754Z,1034.62
2017-01-06T00:56:27.524Z,1034.6
2017-01-06T00:57:36.619Z,1034.64
2017-01-06T00:58:45.764Z,1034.64
2017-01-06T00:59:54.465Z,1034.64
2017-01-06T01:01:03.176Z,1034.63
2017-01-06T01:02:12.264Z,1034.64
2017-01-06T01:03:21.732Z,1034.62
2017-01-06T01:04:30.437Z,1034.61
2017-01-06T01:05:39.505Z,1034.66
2017-01-06T01:06:48.603Z,1034.66
2017-01-06T01:07:58.106Z,1034.65
2017-01-06T01:09:07.215Z,1034.69
2017-01-06T01:10:15.951Z,1034.66
2017-01-06T01:11:25.414Z,1034.73
2017-01-06T01:12:34.162Z,1034.74
2017-01-06T01:13:43.255Z,1034.75
2017-01-06T01:14:51.963Z,1034.78
2017-01-06T01:16:01.462Z,1034.76
2017-01-06T01:17:10.919Z,1034.75
2017-01-06T01:18:19.607Z,1034.76
2017-01-06T01:19:28.361Z,1034.76
2017-01-06T01:20:37.827Z,1034.76
2017-01-06T01:21:47.706Z,1034.69
2017-01-06T01:22:57.193Z,1034.7
2017-01-06T01:24:05.905Z,1034.61
2017-01-06T01:25:15.020Z,1034.65
2017-01-06T01:26:24.103Z,1034.64
2017-01-06T01:27:33.617Z,1034.65
2017-01-06T01:28:43.919Z,1034.63
2017-01-06T01:29:53.005Z,1034.7
2017-01-06T01:31:02.507Z,1034.67
2017-01-06T01:32:12.387Z,1034.68
2017-01-06T01:33:21.534Z,1034.66
2017-01-06T01:34:30.310Z,1034.69
2017-01-06T01:35:39.769Z,1034.72
2017-01-06T01:36:48.898Z,1034.76
2017-01-06T01:37:58.366Z,1034.74
2017-01-06T01:39:07.911Z,1034.77
2017-01-06T01:40:16.589Z,1034.75
2017-01-06T01:41:25.722Z,1034.76
2017-01-06T01:42:35.246Z,1034.7
2017-01-06T01:43:44.388Z,1034.72
2017-01-06T01:44:53.154Z,1034.73
2017-01-06T01:46:02.681Z,1034.77
2017-01-06T01:47:12.216Z,1034.79
2017-01-06T01:48:20.981Z,1034.82
2017-01-06T01:49:30.112Z,1034.79
2017-01-06T01:50:38.805Z,1034.79
2017-01-06T01:51:47.912Z,1034.86
2017-01-06T01:52:57.033Z,1034.81
2017-01-06T01:54:06.583Z,1034.81
2017-01-06T01:55:15.340Z,1034.8
2017-01-06T01:56:24.438Z,1034.81
2017-01-06T01:57:33.509Z,1034.79
2017-01-06T01:58:43.034Z,1034.82
2017-01-06T01:59:51.717Z,1034.84
2017-01-06T02:01:00.815Z,1034.84
2017-01-06T02:02:09.499Z,1034.86
2017-01-06T02:03:19.753Z,1034.85
2017-01-06T02:04:28.861Z,1034.84
2017-01-06T02:05:37.548Z,1034.85
2017-01-06T02:06:46.236Z,1034.82
2017-01-06T02:07:55.391Z,1034.83
2017-01-06T02:09:04.510Z,1034.82
2017-01-06T02:10:13.623Z,1034.8
2017-01-06T02:11:23.170Z,1034.74
2017-01-06T02:12:33.062Z,1034.74
2017-01-06T02:13:42.156Z,1034.76
2017-01-06T02:14:51.223Z,1034.81
2017-01-06T02:15:59.996Z,1034.77
2017-01-06T02:17:09.098Z,1034.79
2017-01-06T02:18:18.567Z,1034.77
2017-01-06T02:19:27.329Z,1034.76
2017-01-06T02:20:37.194Z,1034.73
2017-01-06T02:21:45.901Z,1034.72
2017-01-06T02:22:55.362Z,1034.75
2017-01-06T02:24:05.269Z,1034.77
2017-01-06T02:25:14.368Z,1034.79
2017-01-06T02:26:23.102Z,1034.81
2017-01-06T02:27:32.193Z,1034.84
2017-01-06T02:28:40.887Z,1034.86
2017-01-06T02:29:49.942Z,1034.83
2017-01-06T02:30:59.009Z,1034.81
2017-01-06T02:32:07.694Z,1034.84
2017-01-06T02:33:16.401Z,1034.82
2017-01-06T02:34:26.293Z,1034.83
2017-01-06T02:35:35.763Z,1034.84
2017-01-06T02:36:44.456Z,1034.86
2017-01-06T02:37:53.599Z,1034.88
2017-01-06T02:39:02.316Z,1034.88
2017-01-06T02:40:11.013Z,1034.9
2017-01-06T02:41:20.130Z,1034.88
2017-01-06T02:42:29.580Z,1034.87
2017-01-06T02:43:38.377Z,1034.87
2017-01-06T02:44:47.449Z,1034.85
2017-01-06T02:45:56.208Z,1034.86
2017-01-06T02:47:04.935Z,1034.9
2017-01-06T02:48:13.606Z,1034.91
2017-01-06T02:49:23.503Z,1034.89
2017-01-06T02:50:33.035Z,1034.87
2017-01-06T02:51:42.587Z,1034.87
2017-01-06T02:52:52.103Z,1034.89
2017-01-06T02:54:01.192Z,1034.85
2017-01-06T02:55:10.679Z,1034.87
2017-01-06T02:56:19.805Z,1034.88
2017-01-06T02:57:29.294Z,1034.98
2017-01-06T02:58:38.060Z,1034.98
2017-01-06T02:59:47.160Z,1035.01
2017-01-06T03:00:56.268Z,1035.04
2017-01-06T03:02:05.374Z,1035.09
2017-01-06T03:03:14.125Z,1035.08
2017-01-06T03:04:22.818Z,1035.1
2017-01-06T03:05:32.219Z,1035.08
2017-01-06T03:06:41.351Z,1035.1
2017-01-06T03:07:50.044Z,1035.09
2017-01-06T03:08:59.140Z,1035.11
2017-01-06T03:10:07.878Z,1035.07
2017-01-06T03:11:16.552Z,1035.09
2017-01-06T03:12:26.148Z,1035.12
2017-01-06T03:13:35.610Z,1035.1
2017-01-06T03:14:44.547Z,1035.1
2017-01-06T03:15:53.676Z,1035.08
2017-01-06T03:17:02.824Z,1035.09
2017-01-06T03:18:11.525Z,1035.07
2017-01-06T03:19:20.281Z,1035.1
2017-01-06T03:20:29.800Z,1035.09
2017-01-06T03:21:39.321Z,1035.08
2017-01-06T03:22:48.772Z,1035.13
2017-01-06T03:23:57.858Z,1035.13
2017-01-06T03:25:07.322Z,1035.13
2017-01-06T03:26:16.854Z,1035.15
2017-01-06T03:27:25.530Z,1035.11
2017-01-06T03:28:34.670Z,1035.17
2017-01-06T03:29:43.783Z,1035.14
2017-01-06T03:30:53.272Z,1035.16
2017-01-06T03:32:03.138Z,1035.13
2017-01-06T03:33:11.820Z,1035.09
2017-01-06T03:34:20.972Z,1035.11
2017-01-06T03:35:30.039Z,1035.12
2017-01-06T03:36:38.729Z,1035.16
2017-01-06T03:37:47.407Z,1035.14
2017-01-06T03:38:56.549Z,1035.16
2017-01-06T03:40:05.268Z,1035.19
2017-01-06T03:41:14.380Z,1035.2
2017-01-06T03:42:23.887Z,1035.23
2017-01-06T03:43:33.043Z,1035.21
2017-01-06T03:44:41.741Z,1035.25
2017-01-06T03:45:51.249Z,1035.23
2017-01-06T03:47:00.099Z,1035.25
2017-01-06T03:48:08.791Z,1035.24
2017-01-06T03:49:17.897Z,1035.28
2017-01-06T03:50:27.040Z,1035.24
2017-01-06T03:51:35.735Z,1035.24
2017-01-06T03:52:44.431Z,1035.21
2017-01-06T03:53:54.000Z,1035.2
2017-01-06T03:55:03.091Z,1035.21
2017-01-06T03:56:11.775Z,1035.17
2017-01-06T03:57:20.571Z,1035.18
2017-01-06T03:58:29.779Z,1035.22
2017-01-06T03:59:39.335Z,1035.21
2017-01-06T04:00:49.250Z,1035.21
2017-01-06T04:01:59.166Z,1035.26
2017-01-06T04:03:08.686Z,1035.19
2017-01-06T04:04:17.852Z,1035.17
2017-01-06T04:05:27.368Z,1035.17
2017-01-06T04:06:36.501Z,1035.15
2017-01-06T04:07:45.231Z,1035.14
2017-01-06T04:08:54.322Z,1035.12
2017-01-06T04:10:03.044Z,1035.11
2017-01-06T04:11:12.525Z,1035.1
2017-01-06T04:12:21.685Z,1035.1
2017-01-06T04:13:31.166Z,1035.1
2017-01-06T04:14:40.276Z,1035.11
2017-01-06T04:15:49.809Z,1035.06
2017-01-06T04:16:59.356Z,1035.08
2017-01-06T04:18:08.477Z,1035.09
2017-01-06T04:19:17.557Z,1035.08
2017-01-06T04:20:26.704Z,1035.1
2017-01-06T04:21:36.204Z,1035.13
2017-01-06T04:22:45.319Z,1035.12
2017-01-06T04:23:55.192Z,1035.13
2017-01-06T04:25:03.945Z,1035.12
2017-01-06T04:26:12.654Z,1035.15
2017-01-06T04:27:22.175Z,1035.17
2017-01-06T04:28:31.678Z,1035.22
2017-01-06T04:29:40.821Z,1035.23
2017-01-06T04:30:50.328Z,1035.24
2017-01-06T04:31:59.800Z,1035.24
2017-01-06T04:33:08.894Z,1035.28
2017-01-06T04:34:18.862Z,1035.27
2017-01-06T04:35:28.026Z,1035.3
2017-01-06T04:36:37.106Z,1035.3
2017-01-06T04:37:46.640Z,1035.31
2017-01-06T04:38:55.728Z,1035.29
2017-01-06T04:40:04.852Z,1035.3
2017-01-06T04:41:13.968Z,1035.35
2017-01-06T04:42:23.466Z,1035.33
2017-01-06T04:43:32.201Z,1035.36
2017-01-06T04:44:42.158Z,1035.34
2017-01-06T04:45:51.677Z,1035.42
2017-01-06T04:47:00.978Z,1035.39
2017-01-06T04:48:10.083Z,1035.39
2017-01-06T04:49:19.195Z,1035.34
2017-01-06T04:50:28.296Z,1035.42
2017-01-06T04:51:37.058Z,1035.41
2017-01-06T04:52:46.161Z,1035.41
2017-01-06T04:53:55.239Z,1035.43
2017-01-06T04:55:04.758Z,1035.4
2017-01-06T04:56:14.219Z,1035.41
2017-01-06T04:57:22.996Z,1035.34
2017-01-06T04:58:31.669Z,1035.39
2017-01-06T04:59:40.794Z,1035.4
2017-01-06T05:00:50.314Z,1035.43
2017-01-06T05:01:58.990Z,1035.44
2017-01-06T05:03:08.460Z,1035.42
2017-01-06T05:04:17.579Z,1035.44
2017-01-06T05:05:27.502Z,1035.43
2017-01-06T05:06:36.671Z,1035.45
2017-01-06T05:07:45.421Z,1035.43
2017-01-06T05:08:54.119Z,1035.44
2017-01-06T05:10:02.802Z,1035.45
2017-01-06T05:11:12.299Z,1035.46
2017-01-06T05:12:21.044Z,1035.51
2017-01-06T05:13:30.131Z,1035.51
2017-01-06T05:14:38.822Z,1035.5
2017-01-06T05:15:47.925Z,1035.54
2017-01-06T05:16:57.034Z,1035.55
2017-01-06T05:18:06.517Z,1035.58
2017-01-06T05:19:15.250Z,1035.6
2017-01-06T05:20:24.319Z,1035.59
2017-01-06T05:21:33.398Z,1035.61
2017-01-06T05:22:42.141Z,1035.59
2017-01-06T05:23:50.817Z,1035.59
2017-01-06T05:24:59.960Z,1035.62
2017-01-06T05:26:08.635Z,1035.64
2017-01-06T05:27:17.749Z,1035.63
2017-01-06T05:28:27.623Z,1035.66
2017-01-06T05:29:37.120Z,1035.69
2017-01-06T05:30:45.801Z,1035.66
2017-01-06T05:31:54.504Z,1035.69
2017-01-06T05:33:03.600Z,1035.7
2017-01-06T05:34:12.329Z,1035.67
2017-01-06T05:35:21.044Z,1035.74
2017-01-06T05:36:30.122Z,1035.68
2017-01-06T05:37:38.827Z,1035.68
2017-01-06T05:38:47.961Z,1035.66
2017-01-06T05:39:57.052Z,1035.66
2017-01-06T05:41:06.150Z,1035.62
2017-01-06T05:42:16.069Z,1035.65
2017-01-06T05:43:25.568Z,1035.62
2017-01-06T05:44:34.631Z,1035.65
2017-01-06T05:45:43.350Z,1035.65
2017-01-06T05:46:53.252Z,1035.65
2017-01-06T05:48:01.992Z,1035.64
2017-01-06T05:49:11.477Z,1035.66
2017-01-06T05:50:20.597Z,1035.65
2017-01-06T05:51:29.726Z,1035.65
2017-01-06T05:52:39.662Z,1035.64
2017-01-06T05:53:48.804Z,1035.7
2017-01-06T05:54:57.951Z,1035.67
2017-01-06T05:56:07.094Z,1035.63
2017-01-06T05:57:16.553Z,1035.72
2017-01-06T05:58:26.019Z,1035.61
2017-01-06T05:59:35.558Z,1035.61
2017-01-06T06:00:44.675Z,1035.65
2017-01-06T06:01:53.792Z,1035.61
2017-01-06T06:03:02.876Z,1035.61
2017-01-06T06:04:11.602Z,1035.62
2017-01-06T06:05:20.680Z,1035.67
2017-01-06T06:06:29.844Z,1035.68
2017-01-06T06:07:39.398Z,1035.74
2017-01-06T06:08:48.519Z,1035.74
2017-01-06T06:09:57.670Z,1035.76
2017-01-06T06:11:06.796Z,1035.77
2017-01-06T06:12:16.298Z,1035.71
2017-01-06T06:13:25.801Z,1035.81
2017-01-06T06:14:34.939Z,1035.81
2017-01-06T06:15:43.627Z,1035.86
2017-01-06T06:16:52.722Z,1035.84
2017-01-06T06:18:01.808Z,1035.86
2017-01-06T06:19:11.047Z,1035.86
2017-01-06T06:20:20.524Z,1035.79
2017-01-06T06:21:29.282Z,1035.81
2017-01-06T06:22:37.995Z,1035.77
2017-01-06T06:23:47.120Z,1035.83
2017-01-06T06:24:57.040Z,1035.86
2017-01-06T06:26:06.147Z,1035.86
2017-01-06T06:27:15.225Z,1035.86
2017-01-06T06:28:23.901Z,1035.83
2017-01-06T06:29:33.007Z,1035.87
2017-01-06T06:30:42.139Z,1035.87
2017-01-06T06:31:52.401Z,1035.92
2017-01-06T06:33:01.873Z,1035.9
2017-01-06T06:34:11.050Z,1035.91
2017-01-06T06:35:19.728Z,1035.92
2017-01-06T06:36:28.865Z,1035.94
2017-01-06T06:37:37.549Z,1035.91
2017-01-06T06:38:47.438Z,1035.93
2017-01-06T06:39:56.203Z,1035.88
2017-01-06T06:41:06.075Z,1035.86
2017-01-06T06:42:14.799Z,1035.87
2017-01-06T06:43:23.496Z,1035.87
2017-01-06T06:44:32.246Z,1035.91
2017-01-06T06:45:40.931Z,1035.92
2017-01-06T06:46:50.397Z,1035.96
2017-01-06T06:47:59.183Z,1035.97
2017-01-06T06:49:07.857Z,1035.98
2017-01-06T06:50:17.781Z,1036.01
2017-01-06T06:51:26.899Z,1035.99
2017-01-06T06:52:36.052Z,1036.02
2017-01-06T06:53:44.731Z,1036.01
2017-01-06T06:54:54.225Z,1035.99
2017-01-06T06:56:03.365Z,1035.97
2017-01-06T06:57:12.478Z,1035.99
2017-01-06T06:58:21.665Z,1035.98
2017-01-06T06:59:31.144Z,1035.99
2017-01-06T07:00:40.648Z,1036.02
2017-01-06T07:01:49.344Z,1036.01
2017-01-06T07:02:58.038Z,1036.01
2017-01-06T07:04:07.505Z,1036.08
2017-01-06T07:05:16.627Z,1036.05
2017-01-06T07:06:25.833Z,1036.09
2017-01-06T07:07:34.582Z,1036.12
2017-01-06T07:08:43.728Z,1036.09
2017-01-06T07:09:52.830Z,1036.1
2017-01-06T07:11:01.921Z,1036.03
2017-01-06T07:12:11.004Z,1036.05
2017-01-06T07:13:32.439Z,1036.06
2017-01-06T07:14:41.547Z,1036.08
2017-01-06T07:15:50.708Z,1036.09
2017-01-06T07:17:00.657Z,1036.11
2017-01-06T07:18:09.382Z,1036.14
2017-01-06T07:19:18.516Z,1036.14
2017-01-06T07:20:27.608Z,1036.18
2017-01-06T07:21:36.816Z,1036.15
2017-01-06T07:22:45.919Z,1036.16
2017-01-06T07:23:55.052Z,1036.21
2017-01-06T07:25:04.133Z,1036.21
2017-01-06T07:26:13.208Z,1036.16
2017-01-06T07:27:22.298Z,1036.16
2017-01-06T07:28:31.782Z,1036.11
2017-01-06T07:29:41.656Z,1036.09
2017-01-06T07:30:50.334Z,1036.14
2017-01-06T07:32:00.185Z,1036.16
2017-01-06T07:33:09.653Z,1036.09
2017-01-06T07:34:18.379Z,1036.13
2017-01-06T07:35:27.472Z,1036.15
2017-01-06T07:36:36.950Z,1036.15
2017-01-06T07:37:46.817Z,1036.21
2017-01-06T07:38:55.955Z,1036.15
2017-01-06T07:40:04.656Z,1036.17
2017-01-06T07:41:13.376Z,1036.17
2017-01-06T07:42:22.476Z,1036.2
2017-01-06T07:43:31.211Z,1036.29
2017-01-06T07:44:39.936Z,1036.28
2017-01-06T07:45:50.117Z,1036.32
2017-01-06T07:46:58.811Z,1036.32
2017-01-06T07:48:07.911Z,1036.34
2017-01-06T07:49:16.609Z,1036.36
2017-01-06T07:50:26.143Z,1036.38
2017-01-06T07:51:34.852Z,1036.36
2017-01-06T07:52:43.940Z,1036.33
2017-01-06T07:53:53.452Z,1036.35
2017-01-06T07:55:02.944Z,1036.33
2017-01-06T07:56:12.039Z,1036.33
2017-01-06T07:57:21.139Z,1036.36
2017-01-06T07:58:30.238Z,1036.39
2017-01-06T07:59:39.732Z,1036.37
2017-01-06T08:00:48.497Z,1036.45
2017-01-06T08:01:58.337Z,1036.47
2017-01-06T08:03:07.432Z,1036.45
2017-01-06T08:04:17.304Z,1036.48
2017-01-06T08:05:26.027Z,1036.45
2017-01-06T08:06:35.438Z,1036.49
2017-01-06T08:07:44.149Z,1036.53
2017-01-06T08:08:53.285Z,1036.51
2017-01-06T08:10:02.385Z,1036.54
2017-01-06T08:11:11.530Z,1036.55
2017-01-06T08:12:20.264Z,1036.57
2017-01-06T08:13:29.759Z,1036.57
2017-01-06T08:14:38.485Z,1036.51
2017-01-06T08:15:47.636Z,1036.52
2017-01-06T08:16:56.399Z,1036.54
2017-01-06T08:18:05.512Z,1036.58
2017-01-06T08:19:15.011Z,1036.57
2017-01-06T08:20:24.113Z,1036.62
2017-01-06T08:21:33.206Z,1036.59
2017-01-06T08:22:42.759Z,1036.61
2017-01-06T08:23:51.483Z,1036.62
2017-01-06T08:25:00.632Z,1036.64
2017-01-06T08:26:09.398Z,1036.63
2017-01-06T08:27:19.322Z,1036.63
2017-01-06T08:28:28.434Z,1036.65
2017-01-06T08:29:37.211Z,1036.66
2017-01-06T08:30:46.707Z,1036.66
2017-01-06T08:31:55.415Z,1036.71
2017-01-06T08:33:04.958Z,1036.68
2017-01-06T08:34:13.678Z,1036.7
2017-01-06T08:35:22.424Z,1036.68
2017-01-06T08:36:31.503Z,1036.7
2017-01-06T08:37:40.981Z,1036.66
2017-01-06T08:38:50.502Z,1036.61
2017-01-06T08:39:59.597Z,1036.63
2017-01-06T08:41:08.712Z,1036.7
2017-01-06T08:42:18.205Z,1036.76
2017-01-06T08:43:27.277Z,1036.7
2017-01-06T08:44:36.362Z,1036.68
2017-01-06T08:45:45.468Z,1036.69
2017-01-06T08:46:54.228Z,1036.76
2017-01-06T08:48:02.945Z,1036.74
2017-01-06T08:49:11.671Z,1036.74
2017-01-06T08:50:20.782Z,1036.77
2017-01-06T08:51:29.486Z,1036.78
2017-01-06T08:52:38.579Z,1036.8
2017-01-06T08:53:47.698Z,1036.81
2017-01-06T08:54:57.615Z,1036.83
2017-01-06T08:56:07.452Z,1036.83
2017-01-06T08:57:16.184Z,1036.87
2017-01-06T08:58:25.277Z,1036.82
2017-01-06T08:59:34.808Z,1036.81
2017-01-06T09:00:43.894Z,1036.8
2017-01-06T09:01:52.601Z,1036.78
2017-01-06T09:03:01.411Z,1036.76
2017-01-06T09:04:10.518Z,1036.78
2017-01-06T09:05:20.026Z,1036.76
2017-01-06T09:06:29.141Z,1036.74
2017-01-06T09:07:38.642Z,1036.76
2017-01-06T09:08:47.778Z,1036.79
2017-01-06T09:09:56.875Z,1036.8
2017-01-06T09:11:05.984Z,1036.81
2017-01-06T09:12:14.728Z,1036.78
2017-01-06T09:13:23.848Z,1036.87
2017-01-06T09:14:33.386Z,1036.89
2017-01-06T09:15:43.695Z,1036.86
2017-01-06T09:16:52.855Z,1036.87
2017-01-06T09:18:01.558Z,1036.89
2017-01-06T09:19:11.026Z,1036.91
2017-01-06T09:20:19.710Z,1036.93
2017-01-06T09:21:29.231Z,1036.89
2017-01-06T09:22:38.316Z,1036.95
2017-01-06T09:23:48.231Z,1036.91
2017-01-06T09:24:56.941Z,1036.95
2017-01-06T09:26:06.459Z,1036.97
2017-01-06T09:27:15.214Z,1036.98
2017-01-06T09:28:24.302Z,1036.99
2017-01-06T09:29:33.760Z,1036.97
2017-01-06T09:30:43.255Z,1036.97
2017-01-06T09:31:52.759Z,1036.97
2017-01-06T09:33:01.464Z,1036.93
2017-01-06T09:34:10.629Z,1036.94
2017-01-06T09:35:20.120Z,1036.87
2017-01-06T09:36:29.222Z,1036.88
2017-01-06T09:37:38.342Z,1036.87
2017-01-06T09:38:47.089Z,1036.83
2017-01-06T09:39:56.197Z,1036.82
2017-01-06T09:41:04.940Z,1036.78
2017-01-06T09:42:13.641Z,1036.8
2017-01-06T09:43:22.358Z,1036.83
2017-01-06T09:44:31.054Z,1036.79
2017-01-06T09:45:40.137Z,1036.79
2017-01-06T09:46:49.224Z,1036.82
2017-01-06T09:47:58.334Z,1036.8
2017-01-06T09:49:07.413Z,1036.77
2017-01-06T09:50:16.117Z,1036.79
2017-01-06T09:51:25.223Z,1036.76
2017-01-06T09:52:33.945Z,1036.69
2017-01-06T09:53:42.687Z,1036.71
2017-01-06T09:54:51.427Z,1036.71
2017-01-06T09:56:00.177Z,1036.73
2017-01-06T09:57:09.340Z,1036.75
2017-01-06T09:58:18.063Z,1036.72
2017-01-06T09:59:27.539Z,1036.68
2017-01-06T10:00:37.048Z,1036.71
2017-01-06T10:01:45.759Z,1036.74
2017-01-06T10:02:55.281Z,1036.76
2017-01-06T10:04:04.780Z,1036.75
2017-01-06T10:05:14.277Z,1036.73
2017-01-06T10:06:23.363Z,1036.71
2017-01-06T10:07:32.449Z,1036.7
2017-01-06T10:08:41.238Z,1036.65
2017-01-06T10:09:50.732Z,1036.68
2017-01-06T10:10:59.471Z,1036.65
2017-01-06T10:12:08.219Z,1036.66
2017-01-06T10:13:16.911Z,1036.65
2017-01-06T10:14:26.028Z,1036.63
2017-01-06T10:15:34.711Z,1036.63
2017-01-06T10:16:43.794Z,1036.63
2017-01-06T10:17:52.512Z,1036.59
2017-01-06T10:19:01.597Z,1036.53
2017-01-06T10:20:11.105Z,1036.52
2017-01-06T10:21:20.496Z,1036.54
2017-01-06T10:22:30.375Z,1036.56
2017-01-06T10:23:39.878Z,1036.53
2017-01-06T10:24:48.959Z,1036.56
2017-01-06T10:25:58.147Z,1036.51
2017-01-06T10:27:08.021Z,1036.51
2017-01-06T10:28:17.185Z,1036.48
2017-01-06T10:29:26.308Z,1036.48
2017-01-06T10:30:35.409Z,1036.44
2017-01-06T10:31:44.147Z,1036.49
2017-01-06T10:32:52.842Z,1036.44
2017-01-06T10:34:02.719Z,1036.38
2017-01-06T10:35:12.229Z,1036.36
2017-01-06T10:36:21.331Z,1036.32
2017-01-06T10:37:31.225Z,1036.32
2017-01-06T10:38:39.917Z,1036.27
2017-01-06T10:39:49.038Z,1036.31
2017-01-06T10:40:58.205Z,1036.28
2017-01-06T10:42:07.687Z,1036.31
2017-01-06T10:43:16.793Z,1036.28
2017-01-06T10:44:26.324Z,1036.32
2017-01-06T10:45:35.398Z,1036.29
2017-01-06T10:46:44.893Z,1036.27
2017-01-06T10:47:54.054Z,1036.23
2017-01-06T10:49:02.761Z,1036.22
2017-01-06T10:50:11.854Z,1036.19
2017-01-06T10:51:21.021Z,1036.21
2017-01-06T10:52:30.943Z,1036.16
2017-01-06T10:53:40.852Z,1036.18
2017-01-06T10:54:49.587Z,1036.14
2017-01-06T10:55:58.742Z,1036.08
2017-01-06T10:57:08.605Z,1036.05
2017-01-06T10:58:17.369Z,1036.04
2017-01-06T10:59:26.856Z,1036.01
2017-01-06T11:00:35.580Z,1036.02
2017-01-06T11:01:44.661Z,1035.98
2017-01-06T11:02:54.156Z,1035.96
2017-01-06T11:04:02.862Z,1035.94
2017-01-06T11:05:11.592Z,1035.82
2017-01-06T11:06:20.701Z,1035.79
2017-01-06T11:07:29.793Z,1035.78
2017-01-06T11:08:38.978Z,1035.75
2017-01-06T11:09:47.698Z,1035.8
2017-01-06T11:10:56.427Z,1035.81
2017-01-06T11:12:05.521Z,1035.79
2017-01-06T11:13:14.662Z,1035.79
2017-01-06T11:14:23.783Z,1035.79
2017-01-06T11:15:33.294Z,1035.74
2017-01-06T11:16:42.783Z,1035.74
2017-01-06T11:17:52.283Z,1035.71
2017-01-06T11:19:02.165Z,1035.73
2017-01-06T11:20:11.275Z,1035.67
2017-01-06T11:21:20.382Z,1035.68
2017-01-06T11:22:30.256Z,1035.67
2017-01-06T11:23:38.977Z,1035.62
2017-01-06T11:24:47.696Z,1035.59
2017-01-06T11:25:57.168Z,1035.61
2017-01-06T11:27:05.862Z,1035.59
2017-01-06T11:28:14.961Z,1035.55
2017-01-06T11:29:23.678Z,1035.57
2017-01-06T11:30:32.790Z,1035.59
2017-01-06T11:31:41.878Z,1035.57
2017-01-06T11:32:51.050Z,1035.6
2017-01-06T11:34:00.147Z,1035.56
2017-01-06T11:35:08.844Z,1035.56
2017-01-06T11:36:17.946Z,1035.58
2017-01-06T11:37:26.680Z,1035.6
2017-01-06T11:38:35.878Z,1035.62
2017-01-06T11:39:44.614Z,1035.61
2017-01-06T11:40:53.389Z,1035.58
2017-01-06T11:42:03.296Z,1035.62
2017-01-06T11:43:12.472Z,1035.62
2017-01-06T11:44:21.193Z,1035.67
2017-01-06T11:45:31.160Z,1035.64
2017-01-06T11:46:40.651Z,1035.68
2017-01-06T11:47:50.139Z,1035.68
2017-01-06T11:48:59.644Z,1035.71
2017-01-06T11:50:08.733Z,1035.67
2017-01-06T11:51:17.928Z,1035.67
2017-01-06T11:52:26.652Z,1035.67
2017-01-06T11:53:35.385Z,1035.65
2017-01-06T11:54:44.122Z,1035.66
2017-01-06T11:55:52.814Z,1035.58
2017-01-06T11:57:02.367Z,1035.65
2017-01-06T11:58:11.463Z,1035.53
2017-01-06T11:59:20.586Z,1035.55
2017-01-06T12:00:29.665Z,1035.51
2017-01-06T12:01:38.414Z,1035.54
2017-01-06T12:02:47.532Z,1035.54
2017-01-06T12:03:56.231Z,1035.57
2017-01-06T12:05:06.123Z,1035.58
2017-01-06T12:06:16.045Z,1035.57
2017-01-06T12:07:25.938Z,1035.54
2017-01-06T12:08:35.431Z,1035.47
2017-01-06T12:09:44.529Z,1035.5
2017-01-06T12:10:54.022Z,1035.53
2017-01-06T12:12:03.559Z,1035.51
2017-01-06T12:13:12.289Z,1035.46
2017-01-06T12:14:20.994Z,1035.4
2017-01-06T12:15:29.698Z,1035.39
2017-01-06T12:16:38.797Z,1035.34
2017-01-06T12:17:47.921Z,1035.34
2017-01-06T12:18:57.057Z,1035.35
2017-01-06T12:20:06.262Z,1035.35
2017-01-06T12:21:15.355Z,1035.42
2017-01-06T12:22:24.830Z,1035.49
2017-01-06T12:23:34.757Z,1035.44
2017-01-06T12:24:44.291Z,1035.46
2017-01-06T12:25:53.028Z,1035.46
2017-01-06T12:27:02.184Z,1035.45
2017-01-06T12:28:11.690Z,1035.46
2017-01-06T12:29:21.583Z,1035.48
2017-01-06T12:30:30.347Z,1035.51
2017-01-06T12:31:39.099Z,1035.53
2017-01-06T12:32:47.808Z,1035.51
2017-01-06T12:33:56.523Z,1035.47
2017-01-06T12:35:05.249Z,1035.41
2017-01-06T12:36:14.781Z,1035.44
2017-01-06T12:37:24.307Z,1035.51
2017-01-06T12:38:33.400Z,1035.49
2017-01-06T12:39:42.118Z,1035.52
2017-01-06T12:40:51.200Z,1035.49
2017-01-06T12:41:59.942Z,1035.47
2017-01-06T12:43:08.649Z,1035.51
2017-01-06T12:44:17.761Z,1035.55
2017-01-06T12:45:26.536Z,1035.54
2017-01-06T12:46:35.662Z,1035.56
2017-01-06T12:47:44.825Z,1035.51
2017-01-06T12:48:53.566Z,1035.46
2017-01-06T12:50:02.674Z,1035.45
2017-01-06T12:51:12.571Z,1035.47
2017-01-06T12:52:21.320Z,1035.44
2017-01-06T12:53:30.058Z,1035.43
2017-01-06T12:54:39.196Z,1035.42
2017-01-06T12:55:48.316Z,1035.4
2017-01-06T12:56:57.018Z,1035.47
2017-01-06T12:58:06.145Z,1035.44
2017-01-06T12:59:15.681Z,1035.44
2017-01-06T13:00:24.423Z,1035.42
2017-01-06T13:01:33.914Z,1035.41
2017-01-06T13:02:42.674Z,1035.47
2017-01-06T13:03:51.405Z,1035.47
2017-01-06T13:05:00.521Z,1035.52
2017-01-06T13:06:10.095Z,1035.49
2017-01-06T13:07:18.842Z,1035.51
2017-01-06T13:08:28.776Z,1035.49
2017-01-06T13:09:37.894Z,1035.46
2017-01-06T13:10:47.587Z,1035.41
2017-01-06T13:11:57.091Z,1035.46
2017-01-06T13:13:06.230Z,1035.45
2017-01-06T13:14:15.232Z,1035.48
2017-01-06T13:15:23.991Z,1035.47
2017-01-06T13:16:32.741Z,1035.4
2017-01-06T13:17:41.565Z,1035.32
2017-01-06T13:18:50.293Z,1035.3
2017-01-06T13:19:59.004Z,1035.26
2017-01-06T13:21:08.540Z,1035.25
2017-01-06T13:22:17.634Z,1035.21
2017-01-06T13:23:27.537Z,1035.23
2017-01-06T13:24:36.703Z,1035.24
2017-01-06T13:25:45.416Z,1035.26
2017-01-06T13:26:54.538Z,1035.23
2017-01-06T13:28:03.346Z,1035.25
2017-01-06T13:29:12.460Z,1035.17
2017-01-06T13:30:22.374Z,1035.15
2017-01-06T13:31:31.881Z,1035.09
2017-01-06T13:32:41.013Z,1035.09
2017-01-06T13:33:50.158Z,1035.09
2017-01-06T13:34:59.299Z,1035.11
2017-01-06T13:36:08.776Z,1035.13
2017-01-06T13:37:17.545Z,1035.14
2017-01-06T13:38:26.627Z,1035.16
2017-01-06T13:39:35.784Z,1035.13
2017-01-06T13:40:45.301Z,1035.11
2017-01-06T13:41:54.396Z,1035.13
2017-01-06T13:43:03.143Z,1035.17
2017-01-06T13:44:12.231Z,1035.19
2017-01-06T13:45:20.943Z,1035.12
2017-01-06T13:46:29.668Z,1035.16
2017-01-06T13:47:39.153Z,1035.09
2017-01-06T13:48:48.260Z,1035.11
2017-01-06T13:49:57.399Z,1035.09
2017-01-06T13:51:06.088Z,1035.1
2017-01-06T13:52:14.795Z,1035.13
2017-01-06T13:53:24.313Z,1035.05
2017-01-06T13:54:34.210Z,1035.01
2017-01-06T13:55:42.905Z,1034.97
2017-01-06T13:56:51.705Z,1034.96
2017-01-06T13:58:00.786Z,1034.97